sensor_id;sensor_type;location;lat;lon;timestamp;pressure;altitude;pressure_sealevel;temperature;humidity
72498;BME280;60522;52.536;5.702;2023-01-04T00:01:13;101790.03;;;19.31;54.20
72498;BME280;60522;52.536;5.702;2023-01-04T00:03:39;101787.28;;;19.31;54.27
72498;BME280;60522;52.536;5.702;2023-01-04T00:06:06;101785.69;;;19.30;54.24
72498;BME280;60522;52.536;5.702;2023-01-04T00:08:32;101771.94;;;19.27;54.27
72498;BME280;60522;52.536;5.702;2023-01-04T00:11:07;101779.44;;;19.30;53.91
72498;BME280;60522;52.536;5.702;2023-01-04T00:13:33;101773.84;;;19.26;54.28
72498;BME280;60522;52.536;5.702;2023-01-04T00:16:04;101762.28;;;19.29;53.97
72498;BME280;60522;52.536;5.702;2023-01-04T00:18:31;101765.81;;;19.30;54.27
72498;BME280;60522;52.536;5.702;2023-01-04T00:21:09;101754.09;;;19.29;53.91
72498;BME280;60522;52.536;5.702;2023-01-04T00:23:38;101738.63;;;19.21;54.23
72498;BME280;60522;52.536;5.702;2023-01-04T00:26:09;101741.94;;;19.27;54.04
72498;BME280;60522;52.536;5.702;2023-01-04T00:28:34;101735.56;;;19.22;54.17
72498;BME280;60522;52.536;5.702;2023-01-04T00:31:04;101734.88;;;19.26;53.93
72498;BME280;60522;52.536;5.702;2023-01-04T00:33:29;101740.34;;;19.26;54.19
72498;BME280;60522;52.536;5.702;2023-01-04T00:35:55;101721.25;;;19.26;54.32
72498;BME280;60522;52.536;5.702;2023-01-04T00:38:21;101721.94;;;19.22;54.28
72498;BME280;60522;52.536;5.702;2023-01-04T00:40:46;101710.69;;;19.24;54.14
72498;BME280;60522;52.536;5.702;2023-01-04T00:43:11;101709.88;;;19.23;54.20
72498;BME280;60522;52.536;5.702;2023-01-04T00:45:37;101708.75;;;19.25;54.28
72498;BME280;60522;52.536;5.702;2023-01-04T00:48:02;101688.03;;;19.23;54.14
72498;BME280;60522;52.536;5.702;2023-01-04T00:50:27;101667.16;;;19.15;54.11
72498;BME280;60522;52.536;5.702;2023-01-04T00:52:53;101682.84;;;19.18;54.19
72498;BME280;60522;52.536;5.702;2023-01-04T00:55:18;101660.34;;;19.21;54.15
72498;BME280;60522;52.536;5.702;2023-01-04T00:57:44;101657.50;;;19.18;54.20
72498;BME280;60522;52.536;5.702;2023-01-04T01:00:10;101655.66;;;19.22;54.13
72498;BME280;60522;52.536;5.702;2023-01-04T01:02:35;101641.59;;;19.20;53.98
72498;BME280;60522;52.536;5.702;2023-01-04T01:05:00;101647.47;;;19.22;54.19
72498;BME280;60522;52.536;5.702;2023-01-04T01:07:26;101641.25;;;19.21;54.04
72498;BME280;60522;52.536;5.702;2023-01-04T01:09:51;101624.44;;;19.19;54.21
72498;BME280;60522;52.536;5.702;2023-01-04T01:12:17;101622.50;;;19.20;54.10
72498;BME280;60522;52.536;5.702;2023-01-04T01:14:42;101621.72;;;19.19;54.11
72498;BME280;60522;52.536;5.702;2023-01-04T01:17:07;101625.56;;;19.18;54.09
72498;BME280;60522;52.536;5.702;2023-01-04T01:19:33;101619.00;;;19.19;54.20
72498;BME280;60522;52.536;5.702;2023-01-04T01:21:58;101598.28;;;19.18;54.26
72498;BME280;60522;52.536;5.702;2023-01-04T01:24:24;101615.78;;;19.17;54.13
72498;BME280;60522;52.536;5.702;2023-01-04T01:26:53;101614.66;;;19.18;54.11
72498;BME280;60522;52.536;5.702;2023-01-04T01:29:18;101603.75;;;19.18;54.18
72498;BME280;60522;52.536;5.702;2023-01-04T01:31:44;101581.94;;;19.18;54.19
72498;BME280;60522;52.536;5.702;2023-01-04T01:34:09;101584.66;;;19.18;54.03
72498;BME280;60522;52.536;5.702;2023-01-04T01:36:35;101588.53;;;19.17;54.12
72498;BME280;60522;52.536;5.702;2023-01-04T01:39:01;101560.13;;;19.18;54.13
72498;BME280;60522;52.536;5.702;2023-01-04T01:41:29;101583.06;;;19.17;53.95
72498;BME280;60522;52.536;5.702;2023-01-04T01:43:59;101590.91;;;19.19;53.95
72498;BME280;60522;52.536;5.702;2023-01-04T01:46:47;101580.69;;;19.16;53.87
72498;BME280;60522;52.536;5.702;2023-01-04T01:49:35;101566.94;;;19.12;53.86
72498;BME280;60522;52.536;5.702;2023-01-04T01:52:04;101568.19;;;19.15;54.08
72498;BME280;60522;52.536;5.702;2023-01-04T01:54:36;101565.47;;;19.15;53.71
72498;BME280;60522;52.536;5.702;2023-01-04T01:57:06;101560.81;;;19.15;54.06
72498;BME280;60522;52.536;5.702;2023-01-04T01:59:37;101561.16;;;19.14;54.04
72498;BME280;60522;52.536;5.702;2023-01-04T02:02:04;101564.66;;;19.14;54.07
72498;BME280;60522;52.536;5.702;2023-01-04T02:04:30;101568.19;;;19.15;54.17
72498;BME280;60522;52.536;5.702;2023-01-04T02:06:59;101546.41;;;19.15;54.05
72498;BME280;60522;52.536;5.702;2023-01-04T02:09:29;101545.91;;;19.13;53.97
72498;BME280;60522;52.536;5.702;2023-01-04T02:11:55;101538.56;;;19.13;54.07
72498;BME280;60522;52.536;5.702;2023-01-04T02:14:20;101542.41;;;19.12;53.96
72498;BME280;60522;52.536;5.702;2023-01-04T02:28:01;101519.34;;;19.10;53.90
72498;BME280;60522;52.536;5.702;2023-01-04T02:35:59;101511.50;;;19.08;53.99
72498;BME280;60522;52.536;5.702;2023-01-04T02:43:44;101498.22;;;19.07;53.75
72498;BME280;60522;52.536;5.702;2023-01-04T02:46:37;101485.72;;;19.05;53.99
72498;BME280;60522;52.536;5.702;2023-01-04T02:49:04;101483.81;;;19.06;54.16
72498;BME280;60522;52.536;5.702;2023-01-04T02:51:48;101491.97;;;19.06;54.04
72498;BME280;60522;52.536;5.702;2023-01-04T02:54:22;101469.25;;;19.02;53.88
72498;BME280;60522;52.536;5.702;2023-01-04T03:00:00;101481.28;;;19.01;53.83
72498;BME280;60522;52.536;5.702;2023-01-04T03:05:34;101479.81;;;19.03;53.92
72498;BME280;60522;52.536;5.702;2023-01-04T03:11:06;101473.94;;;19.01;53.98
72498;BME280;60522;52.536;5.702;2023-01-04T03:13:59;101470.38;;;19.01;53.94
72498;BME280;60522;52.536;5.702;2023-01-04T03:16:27;101476.53;;;18.98;54.20
72498;BME280;60522;52.536;5.702;2023-01-04T03:18:56;101474.28;;;19.00;54.15
72498;BME280;60522;52.536;5.702;2023-01-04T03:21:23;101445.44;;;18.86;54.10
72498;BME280;60522;52.536;5.702;2023-01-04T03:23:54;101466.88;;;19.00;54.00
72498;BME280;60522;52.536;5.702;2023-01-04T03:26:43;101456.09;;;18.92;54.04
72498;BME280;60522;52.536;5.702;2023-01-04T03:32:36;101456.66;;;18.97;53.94
72498;BME280;60522;52.536;5.702;2023-01-04T03:35:28;101469.16;;;18.98;53.96
72498;BME280;60522;52.536;5.702;2023-01-04T03:38:07;101448.72;;;18.92;54.03
72498;BME280;60522;52.536;5.702;2023-01-04T03:41:11;101455.41;;;18.95;53.84
72498;BME280;60522;52.536;5.702;2023-01-04T03:44:09;101429.53;;;18.88;53.99
72498;BME280;60522;52.536;5.702;2023-01-04T03:47:00;101475.97;;;18.92;54.04
72498;BME280;60522;52.536;5.702;2023-01-04T03:50:10;101473.47;;;18.99;54.20
72498;BME280;60522;52.536;5.702;2023-01-04T03:52:39;101466.31;;;18.95;54.23
72498;BME280;60522;52.536;5.702;2023-01-04T03:55:09;101463.25;;;18.96;54.18
72498;BME280;60522;52.536;5.702;2023-01-04T03:57:36;101451.22;;;18.97;54.39
72498;BME280;60522;52.536;5.702;2023-01-04T04:00:07;101458.94;;;18.95;54.04
72498;BME280;60522;52.536;5.702;2023-01-04T04:02:34;101453.16;;;18.97;54.38
72498;BME280;60522;52.536;5.702;2023-01-04T04:05:01;101453.16;;;18.97;54.15
72498;BME280;60522;52.536;5.702;2023-01-04T04:07:45;101437.94;;;18.96;54.09
72498;BME280;60522;52.536;5.702;2023-01-04T04:10:29;101436.34;;;18.95;54.24
72498;BME280;60522;52.536;5.702;2023-01-04T04:12:56;101428.16;;;18.95;54.21
72498;BME280;60522;52.536;5.702;2023-01-04T04:15:22;101416.47;;;18.94;54.19
72498;BME280;60522;52.536;5.702;2023-01-04T04:17:47;101406.13;;;18.87;54.25
72498;BME280;60522;52.536;5.702;2023-01-04T04:20:12;101406.81;;;18.97;54.22
72498;BME280;60522;52.536;5.702;2023-01-04T04:22:39;101391.81;;;18.91;54.21
72498;BME280;60522;52.536;5.702;2023-01-04T04:25:05;101396.47;;;18.90;54.24
72498;BME280;60522;52.536;5.702;2023-01-04T04:27:30;101397.19;;;18.87;54.19
72498;BME280;60522;52.536;5.702;2023-01-04T04:29:55;101401.25;;;18.93;54.26
72498;BME280;60522;52.536;5.702;2023-01-04T04:32:21;101403.97;;;18.93;54.24
72498;BME280;60522;52.536;5.702;2023-01-04T04:34:47;101404.44;;;18.95;54.28
72498;BME280;60522;52.536;5.702;2023-01-04T04:37:12;101393.06;;;18.93;54.20
72498;BME280;60522;52.536;5.702;2023-01-04T04:39:37;101384.88;;;18.93;54.25
72498;BME280;60522;52.536;5.702;2023-01-04T04:42:03;101369.91;;;18.87;54.26
72498;BME280;60522;52.536;5.702;2023-01-04T04:44:28;101388.75;;;18.92;54.24
72498;BME280;60522;52.536;5.702;2023-01-04T04:46:53;101368.88;;;18.92;54.19
72498;BME280;60522;52.536;5.702;2023-01-04T04:49:19;101387.97;;;18.92;54.20
72498;BME280;60522;52.536;5.702;2023-01-04T04:51:45;101361.84;;;18.91;54.21
72498;BME280;60522;52.536;5.702;2023-01-04T04:54:14;101373.09;;;18.89;54.21
72498;BME280;60522;52.536;5.702;2023-01-04T04:56:40;101368.88;;;18.92;54.23
72498;BME280;60522;52.536;5.702;2023-01-04T04:59:05;101370.00;;;18.91;54.32
72498;BME280;60522;52.536;5.702;2023-01-04T05:01:31;101364.69;;;18.82;54.23
72498;BME280;60522;52.536;5.702;2023-01-04T05:03:57;101349.69;;;18.76;54.32
72498;BME280;60522;52.536;5.702;2023-01-04T05:06:22;101370.00;;;18.91;54.33
72498;BME280;60522;52.536;5.702;2023-01-04T05:08:48;101368.09;;;18.91;54.27
72498;BME280;60522;52.536;5.702;2023-01-04T05:11:13;101359.03;;;18.87;54.30
72498;BME280;60522;52.536;5.702;2023-01-04T05:13:39;101350.50;;;18.88;54.34
72498;BME280;60522;52.536;5.702;2023-01-04T05:16:05;101350.50;;;18.88;54.26
72498;BME280;60522;52.536;5.702;2023-01-04T05:18:32;101344.25;;;18.88;54.31
72498;BME280;60522;52.536;5.702;2023-01-04T05:20:57;101350.50;;;18.88;54.25
72498;BME280;60522;52.536;5.702;2023-01-04T05:23:23;101333.13;;;18.81;54.29
72498;BME280;60522;52.536;5.702;2023-01-04T05:25:57;101334.50;;;18.87;54.08
72498;BME280;60522;52.536;5.702;2023-01-04T05:28:24;101334.50;;;18.87;54.37
72498;BME280;60522;52.536;5.702;2023-01-04T05:30:51;101320.88;;;18.87;54.37
72498;BME280;60522;52.536;5.702;2023-01-04T05:33:26;101309.19;;;18.86;54.06
72498;BME280;60522;52.536;5.702;2023-01-04T05:35:53;101289.44;;;18.77;54.19
72498;BME280;60522;52.536;5.702;2023-01-04T05:38:19;101295.56;;;18.86;54.31
72498;BME280;60522;52.536;5.702;2023-01-04T05:40:45;101291.22;;;18.85;54.34
72498;BME280;60522;52.536;5.702;2023-01-04T05:43:11;101284.16;;;18.84;54.26
72498;BME280;60522;52.536;5.702;2023-01-04T05:45:38;101283.06;;;18.85;54.35
72498;BME280;60522;52.536;5.702;2023-01-04T05:48:03;101278.03;;;18.87;54.40
72498;BME280;60522;52.536;5.702;2023-01-04T05:50:30;101276.47;;;18.86;54.28
72498;BME280;60522;52.536;5.702;2023-01-04T05:52:55;101268.63;;;18.85;54.30
72498;BME280;60522;52.536;5.702;2023-01-04T05:55:21;101256.91;;;18.84;54.30
72498;BME280;60522;52.536;5.702;2023-01-04T05:57:46;101280.00;;;18.87;54.33
72498;BME280;60522;52.536;5.702;2023-01-04T06:00:12;101288.50;;;18.85;54.47
72498;BME280;60522;52.536;5.702;2023-01-04T06:02:40;101304.41;;;18.83;54.24
72498;BME280;60522;52.536;5.702;2023-01-04T06:05:06;101296.22;;;18.83;54.29
72498;BME280;60522;52.536;5.702;2023-01-04T06:07:35;101265.91;;;18.85;54.34
72498;BME280;60522;52.536;5.702;2023-01-04T06:10:00;101267.81;;;18.84;54.34
72498;BME280;60522;52.536;5.702;2023-01-04T06:12:26;101264.31;;;18.84;54.40
72498;BME280;60522;52.536;5.702;2023-01-04T06:14:51;101299.28;;;18.82;54.30
72498;BME280;60522;52.536;5.702;2023-01-04T06:17:17;101298.94;;;18.83;54.38
72498;BME280;60522;52.536;5.702;2023-01-04T06:19:42;101316.88;;;18.84;54.38
72498;BME280;60522;52.536;5.702;2023-01-04T06:22:08;101322.66;;;18.83;54.37
72498;BME280;60522;52.536;5.702;2023-01-04T06:24:33;101318.25;;;18.78;54.26
72498;BME280;60522;52.536;5.702;2023-01-04T06:27:00;101309.38;;;18.81;54.37
72498;BME280;60522;52.536;5.702;2023-01-04T06:29:25;101313.69;;;18.82;54.39
72498;BME280;60522;52.536;5.702;2023-01-04T06:31:51;101314.47;;;18.83;54.50
72498;BME280;60522;52.536;5.702;2023-01-04T06:34:16;101314.06;;;18.81;54.39
72498;BME280;60522;52.536;5.702;2023-01-04T06:36:42;101304.19;;;18.76;54.38
72498;BME280;60522;52.536;5.702;2023-01-04T06:39:07;101325.38;;;18.83;54.40
72498;BME280;60522;52.536;5.702;2023-01-04T06:41:33;101307.13;;;18.83;54.40
72498;BME280;60522;52.536;5.702;2023-01-04T06:43:59;101312.09;;;18.81;54.38
72498;BME280;60522;52.536;5.702;2023-01-04T06:46:25;101305.88;;;18.81;54.32
72498;BME280;60522;52.536;5.702;2023-01-04T06:48:51;101305.31;;;18.75;54.27
72498;BME280;60522;52.536;5.702;2023-01-04T06:51:18;101302.38;;;18.80;54.40
72498;BME280;60522;52.536;5.702;2023-01-04T06:53:43;101308.25;;;18.82;54.37
72498;BME280;60522;52.536;5.702;2023-01-04T06:56:12;101312.44;;;18.80;54.38
72498;BME280;60522;52.536;5.702;2023-01-04T06:58:37;101305.88;;;18.81;54.39
72498;BME280;60522;52.536;5.702;2023-01-04T07:01:03;101297.25;;;18.79;54.41
72498;BME280;60522;52.536;5.702;2023-01-04T07:03:28;101299.53;;;18.77;54.33
72498;BME280;60522;52.536;5.702;2023-01-04T07:05:54;101290.44;;;18.73;54.40
72498;BME280;60522;52.536;5.702;2023-01-04T07:08:19;101284.41;;;18.79;54.40
72498;BME280;60522;52.536;5.702;2023-01-04T07:10:45;101283.63;;;18.79;54.38
72498;BME280;60522;52.536;5.702;2023-01-04T07:13:10;101270.78;;;18.79;54.43
72498;BME280;60522;52.536;5.702;2023-01-04T07:15:36;101280.78;;;18.75;54.37
72498;BME280;60522;52.536;5.702;2023-01-04T07:18:01;101267.28;;;18.79;54.32
72498;BME280;60522;52.536;5.702;2023-01-04T07:20:26;101250.72;;;18.72;54.43
72498;BME280;60522;52.536;5.702;2023-01-04T07:22:52;101262.19;;;18.77;54.39
72498;BME280;60522;52.536;5.702;2023-01-04T07:25:18;101255.72;;;18.69;54.51
72498;BME280;60522;52.536;5.702;2023-01-04T07:27:43;101251.28;;;18.77;54.46
72498;BME280;60522;52.536;5.702;2023-01-04T07:30:09;101255.91;;;18.77;54.30
72498;BME280;60522;52.536;5.702;2023-01-04T07:32:35;101239.56;;;18.77;54.42
72498;BME280;60522;52.536;5.702;2023-01-04T07:35:00;101236.75;;;18.73;54.46
72498;BME280;60522;52.536;5.702;2023-01-04T07:37:26;101249.56;;;18.73;54.23
72498;BME280;60522;52.536;5.702;2023-01-04T07:39:51;101253.19;;;18.77;54.48
72498;BME280;60522;52.536;5.702;2023-01-04T07:42:16;101244.59;;;18.75;54.46
72498;BME280;60522;52.536;5.702;2023-01-04T07:44:44;101255.13;;;18.76;54.36
72498;BME280;60522;52.536;5.702;2023-01-04T07:47:09;101246.16;;;18.76;54.39
72498;BME280;60522;52.536;5.702;2023-01-04T07:49:35;101250.38;;;18.73;54.46
72498;BME280;60522;52.536;5.702;2023-01-04T07:52:00;101232.72;;;18.67;54.53
72498;BME280;60522;52.536;5.702;2023-01-04T07:54:26;101226.91;;;18.68;54.42
72498;BME280;60522;52.536;5.702;2023-01-04T07:56:51;101240.69;;;18.76;54.39
72498;BME280;60522;52.536;5.702;2023-01-04T07:59:18;101227.09;;;18.76;54.43
72498;BME280;60522;52.536;5.702;2023-01-04T08:01:45;101234.47;;;18.75;54.46
72498;BME280;60522;52.536;5.702;2023-01-04T08:04:12;101224.53;;;18.67;54.27
72498;BME280;60522;52.536;5.702;2023-01-04T08:06:39;101240.69;;;18.76;54.37
72498;BME280;60522;52.536;5.702;2023-01-04T08:09:05;101232.88;;;18.74;54.46
72498;BME280;60522;52.536;5.702;2023-01-04T08:11:31;101220.66;;;18.68;54.39
72498;BME280;60522;52.536;5.702;2023-01-04T08:13:57;101237.53;;;18.74;54.44
72498;BME280;60522;52.536;5.702;2023-01-04T08:16:32;101236.75;;;18.73;54.33
72498;BME280;60522;52.536;5.702;2023-01-04T08:18:59;101250.03;;;18.75;54.47
72498;BME280;60522;52.536;5.702;2023-01-04T08:21:27;101243.34;;;18.72;54.51
72498;BME280;60522;52.536;5.702;2023-01-04T08:23:53;101238.69;;;18.73;54.55
72498;BME280;60522;52.536;5.702;2023-01-04T08:26:19;101234.47;;;18.75;54.42
72498;BME280;60522;52.536;5.702;2023-01-04T08:28:45;101233.41;;;18.64;54.39
72498;BME280;60522;52.536;5.702;2023-01-04T08:31:14;101241.41;;;18.73;54.31
72498;BME280;60522;52.536;5.702;2023-01-04T08:33:40;101251.50;;;18.72;54.46
72498;BME280;60522;52.536;5.702;2023-01-04T08:36:11;101246.84;;;18.73;54.38
72498;BME280;60522;52.536;5.702;2023-01-04T08:38:37;101240.97;;;18.70;54.31
72498;BME280;60522;52.536;5.702;2023-01-04T08:41:03;101237.47;;;18.70;54.54
72498;BME280;60522;52.536;5.702;2023-01-04T08:43:28;101245.63;;;18.70;54.46
72498;BME280;60522;52.536;5.702;2023-01-04T08:45:54;101245.63;;;18.70;54.60
72498;BME280;60522;52.536;5.702;2023-01-04T08:48:19;101248.00;;;18.72;54.43
72498;BME280;60522;52.536;5.702;2023-01-04T08:50:44;101257.31;;;18.70;54.46
72498;BME280;60522;52.536;5.702;2023-01-04T08:53:10;101259.25;;;18.70;54.51
72498;BME280;60522;52.536;5.702;2023-01-04T08:55:35;101251.09;;;18.70;54.47
72498;BME280;60522;52.536;5.702;2023-01-04T08:58:01;101263.91;;;18.69;54.69
72498;BME280;60522;52.536;5.702;2023-01-04T09:00:27;101254.94;;;18.69;54.52
72498;BME280;60522;52.536;5.702;2023-01-04T09:02:53;101263.09;;;18.69;54.63
72498;BME280;60522;52.536;5.702;2023-01-04T09:05:19;101265.84;;;18.69;54.47
72498;BME280;60522;52.536;5.702;2023-01-04T09:07:44;101266.63;;;18.69;54.58
72498;BME280;60522;52.536;5.702;2023-01-04T09:10:10;101267.44;;;18.70;54.51
72498;BME280;60522;52.536;5.702;2023-01-04T09:12:35;101265.06;;;18.68;54.51
72498;BME280;60522;52.536;5.702;2023-01-04T09:15:01;101268.56;;;18.69;54.55
72498;BME280;60522;52.536;5.702;2023-01-04T09:17:26;101248.50;;;18.61;54.48
72498;BME280;60522;52.536;5.702;2023-01-04T09:19:52;101274.34;;;18.67;54.54
72498;BME280;60522;52.536;5.702;2023-01-04T09:22:17;101265.84;;;18.69;54.53
72498;BME280;60522;52.536;5.702;2023-01-04T09:24:42;101274.78;;;18.69;54.64
72498;BME280;60522;52.536;5.702;2023-01-04T09:27:08;101266.19;;;18.67;54.38
72498;BME280;60522;52.536;5.702;2023-01-04T09:29:33;101276.72;;;18.69;54.50
72498;BME280;60522;52.536;5.702;2023-01-04T09:31:58;101281.41;;;18.68;54.54
72498;BME280;60522;52.536;5.702;2023-01-04T09:34:24;101285.25;;;18.67;54.61
72498;BME280;60522;52.536;5.702;2023-01-04T09:36:50;101287.97;;;18.67;54.50
72498;BME280;60522;52.536;5.702;2023-01-04T09:39:16;101278.56;;;18.65;54.50
72498;BME280;60522;52.536;5.702;2023-01-04T09:41:46;101293.44;;;18.67;54.56
72498;BME280;60522;52.536;5.702;2023-01-04T09:49:51;101291.06;;;18.66;54.56
72498;BME280;60522;52.536;5.702;2023-01-04T09:52:21;101285.59;;;18.66;54.50
72498;BME280;60522;52.536;5.702;2023-01-04T09:57:29;101281.53;;;18.60;54.49
72498;BME280;60522;52.536;5.702;2023-01-04T10:00:02;101293.09;;;18.69;54.50
72498;BME280;60522;52.536;5.702;2023-01-04T10:05:30;101280.84;;;18.63;54.70
72498;BME280;60522;52.536;5.702;2023-01-04T10:07:55;101277.78;;;18.64;54.59
72498;BME280;60522;52.536;5.702;2023-01-04T10:13:23;101284.00;;;18.65;54.47
72498;BME280;60522;52.536;5.702;2023-01-04T10:15:59;101265.75;;;18.65;54.53
72498;BME280;60522;52.536;5.702;2023-01-04T10:22:05;101269.50;;;18.61;54.51
72498;BME280;60522;52.536;5.702;2023-01-04T10:33:26;101266.53;;;18.66;54.49
72498;BME280;60522;52.536;5.702;2023-01-04T10:35:43;101277.88;;;18.68;54.48
72498;BME280;60522;52.536;5.702;2023-01-04T10:38:15;101261.50;;;18.68;54.54
72498;BME280;60522;52.536;5.702;2023-01-04T10:40:41;101259.13;;;18.66;54.53
72498;BME280;60522;52.536;5.702;2023-01-04T10:43:14;101251.56;;;18.60;54.45
72498;BME280;60522;52.536;5.702;2023-01-04T10:48:17;101262.69;;;18.67;54.45
72498;BME280;60522;52.536;5.702;2023-01-04T10:50:53;101245.97;;;18.68;54.45
72498;BME280;60522;52.536;5.702;2023-01-04T10:56:03;101244.47;;;18.71;54.37
72498;BME280;60522;52.536;5.702;2023-01-04T11:01:16;101233.56;;;18.71;54.40
72498;BME280;60522;52.536;5.702;2023-01-04T11:03:51;101233.56;;;18.71;54.30
72498;BME280;60522;52.536;5.702;2023-01-04T11:06:26;101243.25;;;18.68;54.55
72498;BME280;60522;52.536;5.702;2023-01-04T11:09:00;101237.00;;;18.68;54.46
72498;BME280;60522;52.536;5.702;2023-01-04T11:11:31;101232.34;;;18.68;54.46
72498;BME280;60522;52.536;5.702;2023-01-04T11:13:58;101219.09;;;18.67;54.46
72498;BME280;60522;52.536;5.702;2023-01-04T11:16:24;101212.47;;;18.68;54.45
72498;BME280;60522;52.536;5.702;2023-01-04T11:18:50;101201.50;;;18.64;54.59
72498;BME280;60522;52.536;5.702;2023-01-04T11:21:20;101213.97;;;18.65;54.36
72498;BME280;60522;52.536;5.702;2023-01-04T11:23:56;101232.44;;;18.72;54.52
72498;BME280;60522;52.536;5.702;2023-01-04T11:26:29;101222.25;;;18.69;54.46
72498;BME280;60522;52.536;5.702;2023-01-04T11:29:01;101213.72;;;18.70;54.43
72498;BME280;60522;52.536;5.702;2023-01-04T11:31:43;101199.91;;;18.63;54.50
72498;BME280;60522;52.536;5.702;2023-01-04T11:34:10;101211.34;;;18.69;54.50
72498;BME280;60522;52.536;5.702;2023-01-04T11:36:44;101214.06;;;18.69;54.54
72498;BME280;60522;52.536;5.702;2023-01-04T11:39:21;101217.56;;;18.69;54.46
72498;BME280;60522;52.536;5.702;2023-01-04T11:42:00;101205.91;;;18.69;54.36
72498;BME280;60522;52.536;5.702;2023-01-04T11:44:28;101203.16;;;18.69;54.53
72498;BME280;60522;52.536;5.702;2023-01-04T11:47:26;101200.78;;;18.67;54.39
72498;BME280;60522;52.536;5.702;2023-01-04T11:49:55;101217.84;;;18.64;54.54
72498;BME280;60522;52.536;5.702;2023-01-04T11:52:41;101224.19;;;18.68;54.45
72498;BME280;60522;52.536;5.702;2023-01-04T11:58:10;101202.28;;;18.65;54.57
72498;BME280;60522;52.536;5.702;2023-01-04T12:00:37;101205.47;;;18.67;54.59
72498;BME280;60522;52.536;5.702;2023-01-04T12:03:13;101195.84;;;18.57;54.52
72498;BME280;60522;52.536;5.702;2023-01-04T12:05:39;101199.91;;;18.63;54.60
72498;BME280;60522;52.536;5.702;2023-01-04T12:08:05;101202.97;;;18.62;54.56
72498;BME280;60522;52.536;5.702;2023-01-04T12:10:30;101200.16;;;18.58;54.51
72498;BME280;60522;52.536;5.702;2023-01-04T12:12:59;101212.03;;;18.66;54.58
72498;BME280;60522;52.536;5.702;2023-01-04T12:16:16;101208.88;;;18.64;54.54
72498;BME280;60522;52.536;5.702;2023-01-04T12:18:44;101192.97;;;18.66;54.47
72498;BME280;60522;52.536;5.702;2023-01-04T12:21:19;101189.47;;;18.65;54.47
72498;BME280;60522;52.536;5.702;2023-01-04T12:23:45;101192.19;;;18.65;54.60
72498;BME280;60522;52.536;5.702;2023-01-04T12:26:11;101179.34;;;18.66;54.54
72498;BME280;60522;52.536;5.702;2023-01-04T12:28:39;101185.22;;;18.68;54.50
72498;BME280;60522;52.536;5.702;2023-01-04T12:36:18;101170.81;;;18.67;54.44
72498;BME280;60522;52.536;5.702;2023-01-04T12:38:58;101191.84;;;18.67;54.40
72498;BME280;60522;52.536;5.702;2023-01-04T12:43:59;101175.03;;;18.65;54.54
72498;BME280;60522;52.536;5.702;2023-01-04T13:02:35;101179.78;;;18.68;54.57
72498;BME280;60522;52.536;5.702;2023-01-04T13:05:26;101193.41;;;18.68;54.39
72498;BME280;60522;52.536;5.702;2023-01-04T13:15:23;101180.75;;;18.60;54.49
72498;BME280;60522;52.536;5.702;2023-01-04T13:17:52;101191.63;;;18.60;54.57
72498;BME280;60522;52.536;5.702;2023-01-04T13:20:22;101187.44;;;18.62;54.39
72498;BME280;60522;52.536;5.702;2023-01-04T13:22:54;101197.72;;;18.69;54.54
72498;BME280;60522;52.536;5.702;2023-01-04T13:25:23;101188.56;;;18.61;54.44
72498;BME280;60522;52.536;5.702;2023-01-04T13:28:02;101176.06;;;18.60;54.36
72498;BME280;60522;52.536;5.702;2023-01-04T13:30:33;101171.75;;;18.59;54.51
72498;BME280;60522;52.536;5.702;2023-01-04T13:33:10;101184.44;;;18.67;54.36
72498;BME280;60522;52.536;5.702;2023-01-04T13:35:38;101198.41;;;18.66;54.54
72498;BME280;60522;52.536;5.702;2023-01-04T13:38:11;101184.25;;;18.60;54.45
72498;BME280;60522;52.536;5.702;2023-01-04T13:40:43;101187.53;;;18.66;54.37
72498;BME280;60522;52.536;5.702;2023-01-04T13:46:07;101190.25;;;18.66;54.30
72498;BME280;60522;52.536;5.702;2023-01-04T13:48:39;101185.94;;;18.65;54.53
72498;BME280;60522;52.536;5.702;2023-01-04T13:51:23;101185.94;;;18.65;54.44
72498;BME280;60522;52.536;5.702;2023-01-04T13:53:54;101185.16;;;18.64;54.41
72498;BME280;60522;52.536;5.702;2023-01-04T13:56:23;101176.97;;;18.64;54.46
72498;BME280;60522;52.536;5.702;2023-01-04T13:58:49;101179.69;;;18.64;54.58
72498;BME280;60522;52.536;5.702;2023-01-04T14:01:22;101179.69;;;18.64;54.45
72498;BME280;60522;52.536;5.702;2023-01-04T14:03:50;101176.97;;;18.64;54.53
72498;BME280;60522;52.536;5.702;2023-01-04T14:11:21;101176.97;;;18.64;54.48
72498;BME280;60522;52.536;5.702;2023-01-04T14:24:53;101142.41;;;18.52;54.56
72498;BME280;60522;52.536;5.702;2023-01-04T14:27:39;101154.28;;;18.60;54.52
72498;BME280;60522;52.536;5.702;2023-01-04T14:33:00;101165.19;;;18.60;54.54
72498;BME280;60522;52.536;5.702;2023-01-04T14:35:27;101157.81;;;18.61;54.50
72498;BME280;60522;52.536;5.702;2023-01-04T14:37:54;101159.03;;;18.63;54.47
72498;BME280;60522;52.536;5.702;2023-01-04T14:42:45;101171.97;;;18.66;54.44
72498;BME280;60522;52.536;5.702;2023-01-04T14:45:12;101172.78;;;18.67;54.38
72498;BME280;60522;52.536;5.702;2023-01-04T14:47:38;101170.63;;;18.60;54.42
72498;BME280;60522;52.536;5.702;2023-01-04T14:50:03;101186.47;;;18.70;54.31
72498;BME280;60522;52.536;5.702;2023-01-04T14:52:29;101189.63;;;18.73;54.33
72498;BME280;60522;52.536;5.702;2023-01-04T14:54:55;101195.09;;;18.73;54.31
72498;BME280;60522;52.536;5.702;2023-01-04T14:57:20;101187.53;;;18.66;54.29
72498;BME280;60522;52.536;5.702;2023-01-04T14:59:46;101207.13;;;18.72;54.32
72498;BME280;60522;52.536;5.702;2023-01-04T15:02:12;101201.69;;;18.72;54.30
72498;BME280;60522;52.536;5.702;2023-01-04T15:04:37;101189.56;;;18.69;54.43
72498;BME280;60522;52.536;5.702;2023-01-04T15:07:03;101176.34;;;18.71;54.33